Time;durP1;ratioP1;P1;durP2;ratioP2;P2;SDS_P1;SDS_P2;PMS_P1;PMS_P2;Temp;Humidity;BMP_temperature;BMP_pressure;BME280_temperature;BME280_humidity;BME280_pressure;Samples;Min_cycle;Max_cycle;Signal;HPM_P1;HPM_P2
2022/11/29 00:00:34;;;;;;;87.78;25.33;;;8.50;99.90;;;;;;5092863;28;20050;-54
2022/11/29 00:02:59;;;;;;;132.27;25.77;;;8.50;99.90;;;;;;5094261;28;20131;-52
2022/11/29 00:05:25;;;;;;;90.60;26.70;;;8.50;99.90;;;;;;5082211;28;20123;-55
2022/11/29 00:07:51;;;;;;;94.80;25.50;;;8.40;99.90;;;;;;5086598;28;20039;-54
2022/11/29 00:10:17;;;;;;;102.07;25.75;;;8.40;99.90;;;;;;5085721;28;20112;-51
2022/11/29 00:12:42;;;;;;;95.10;26.52;;;8.40;99.90;;;;;;5084313;28;20032;-54
2022/11/29 00:15:08;;;;;;;102.68;26.38;;;8.50;99.90;;;;;;5085568;28;20083;-53
2022/11/29 00:17:34;;;;;;;104.25;26.38;;;8.40;99.90;;;;;;5085057;28;20036;-52
2022/11/29 00:20:00;;;;;;;123.13;27.77;;;8.50;99.90;;;;;;5088249;28;20251;-51
2022/11/29 00:22:25;;;;;;;130.43;25.88;;;8.40;99.90;;;;;;5084182;28;20048;-54
2022/11/29 00:24:51;;;;;;;94.57;27.52;;;8.50;99.90;;;;;;5083895;28;20549;-51
2022/11/29 00:27:17;;;;;;;122.78;28.00;;;8.50;99.90;;;;;;5086503;28;20064;-52
2022/11/29 00:29:42;;;;;;;135.07;28.25;;;8.40;99.90;;;;;;5086025;28;20040;-52
2022/11/29 00:32:08;;;;;;;115.22;26.65;;;8.50;99.90;;;;;;5087246;28;20123;-52
2022/11/29 00:34:34;;;;;;;129.00;26.80;;;8.40;99.90;;;;;;5086942;28;20424;-55
2022/11/29 00:36:59;;;;;;;119.78;26.45;;;8.50;99.90;;;;;;5084783;28;20051;-52
2022/11/29 00:39:25;;;;;;;121.45;25.67;;;8.50;99.90;;;;;;5081912;28;20075;-51
2022/11/29 00:41:51;;;;;;;92.25;25.55;;;8.40;99.90;;;;;;5081693;28;20485;-53
2022/11/29 00:44:17;;;;;;;93.72;23.98;;;8.50;99.90;;;;;;5082302;28;20036;-52
2022/11/29 00:46:42;;;;;;;97.00;26.20;;;8.50;99.90;;;;;;5082309;28;20078;-53
2022/11/29 00:49:08;;;;;;;104.45;25.83;;;8.50;99.90;;;;;;5086456;28;20058;-55
2022/11/29 00:51:33;;;;;;;96.80;24.90;;;8.50;99.90;;;;;;5091799;28;20078;-54
2022/11/29 00:53:59;;;;;;;93.50;24.52;;;8.50;99.90;;;;;;5088953;28;20036;-54
2022/11/29 00:56:25;;;;;;;88.97;22.92;;;8.50;99.90;;;;;;5086651;28;20036;-53
2022/11/29 00:58:50;;;;;;;95.78;21.50;;;8.50;99.90;;;;;;5088835;28;20577;-52
2022/11/29 01:01:16;;;;;;;91.65;24.15;;;8.50;99.90;;;;;;5089005;28;20036;-53
2022/11/29 01:03:42;;;;;;;90.20;23.83;;;8.50;99.90;;;;;;5084564;28;20040;-54
2022/11/29 01:06:13;;;;;;;114.25;24.55;;;8.50;99.90;;;;;;5089321;28;20651;-55
2022/11/29 01:08:39;;;;;;;137.60;24.73;;;8.50;99.90;;;;;;5087680;28;20039;-56
2022/11/29 01:11:09;;;;;;;126.22;25.48;;;8.50;99.90;;;;;;5082142;28;20041;-53
2022/11/29 01:13:35;;;;;;;121.97;26.35;;;8.60;99.90;;;;;;5078493;28;20521;-51
2022/11/29 01:16:01;;;;;;;128.85;26.38;;;8.50;99.90;;;;;;5080054;28;20067;-51
2022/11/29 01:18:29;;;;;;;105.03;23.48;;;8.60;99.90;;;;;;5080141;28;20159;-56
2022/11/29 01:21:13;;;;;;;109.88;26.67;;;8.50;99.90;;;;;;5076421;28;20496;-51
2022/11/29 01:23:39;;;;;;;97.05;24.35;;;8.50;99.90;;;;;;5075921;28;20146;-54
2022/11/29 01:26:18;;;;;;;105.85;25.65;;;8.50;99.90;;;;;;5076757;28;20036;-52
2022/11/29 01:28:49;;;;;;;102.53;24.90;;;8.60;99.90;;;;;;5074385;28;20418;-52
2022/11/29 01:31:17;;;;;;;105.82;25.85;;;8.50;99.90;;;;;;5076662;28;20546;-51
2022/11/29 01:33:43;;;;;;;107.55;25.45;;;8.50;99.90;;;;;;5076098;28;20071;-52
2022/11/29 01:36:11;;;;;;;94.38;23.75;;;8.50;99.90;;;;;;5074637;28;20143;-53
2022/11/29 01:38:37;;;;;;;;;;;8.50;99.90;;;;;;5077516;28;20076;-52
2022/11/29 01:41:09;;;;;;;75.55;20.48;;;8.50;99.90;;;;;;5076428;28;19978;-53
2022/11/29 01:44:00;;;;;;;114.18;26.38;;;8.50;99.90;;;;;;5081412;28;20097;-51
2022/11/29 01:46:37;;;;;;;106.70;25.98;;;8.50;99.90;;;;;;5080825;28;20068;-53
2022/11/29 01:49:23;;;;;;;100.28;25.80;;;8.60;99.90;;;;;;5083172;28;20036;-50
2022/11/29 01:51:52;;;;;;;100.20;24.77;;;8.50;99.90;;;;;;5082260;28;20051;-50
2022/11/29 01:54:19;;;;;;;101.97;25.13;;;8.50;99.90;;;;;;5082415;28;20048;-51
2022/11/29 01:56:47;;;;;;;90.72;24.55;;;8.50;99.90;;;;;;5083345;28;20442;-50
2022/11/29 01:59:16;;;;;;;108.45;24.90;;;8.50;99.90;;;;;;5083565;28;20032;-51
2022/11/29 02:01:41;;;;;;;117.03;25.52;;;8.50;99.90;;;;;;5081712;28;20048;-54
2022/11/29 02:04:07;;;;;;;109.35;25.35;;;8.50;99.90;;;;;;5083679;28;20043;-51
2022/11/29 02:06:34;;;;;;;102.88;23.48;;;8.50;99.90;;;;;;5082919;28;20101;-54
2022/11/29 02:09:00;;;;;;;117.45;25.08;;;8.50;99.90;;;;;;5087383;28;20067;-54
2022/11/29 02:11:53;;;;;;;121.88;26.10;;;8.50;99.90;;;;;;5083734;28;20478;-51
2022/11/29 02:14:37;;;;;;;100.82;24.67;;;8.50;99.90;;;;;;5079402;28;20101;-55
2022/11/29 02:17:19;;;;;;;81.43;23.40;;;8.50;99.90;;;;;;5077576;28;20535;-55
2022/11/29 02:20:07;;;;;;;102.47;25.13;;;8.50;99.90;;;;;;5077294;28;20056;-54
2022/11/29 02:22:37;;;;;;;;;;;8.50;99.90;;;;;;5075466;28;20089;-54
2022/11/29 02:25:15;;;;;;;107.63;25.02;;;8.40;99.90;;;;;;5079614;28;20369;-53
2022/11/29 02:28:29;;;;;;;84.57;23.35;;;8.50;99.90;;;;;;5079018;28;20043;-54
2022/11/29 02:31:16;;;;;;;127.93;25.92;;;8.50;99.90;;;;;;5080770;28;20047;-55
2022/11/29 02:33:45;;;;;;;;;;;8.50;99.90;;;;;;5082816;28;20561;-53
2022/11/29 02:36:33;;;;;;;141.73;26.08;;;8.50;99.90;;;;;;5089233;28;20387;-55
2022/11/29 02:39:20;;;;;;;132.00;26.05;;;8.50;99.90;;;;;;5082200;28;21311;-51
2022/11/29 02:42:09;;;;;;;109.60;24.80;;;8.50;99.90;;;;;;5082483;28;20368;-51
2022/11/29 02:44:53;;;;;;;110.78;24.67;;;8.40;99.90;;;;;;5079295;28;20085;-50
2022/11/29 02:47:31;;;;;;;111.03;24.00;;;8.40;99.90;;;;;;5078328;28;20051;-54
2022/11/29 02:50:25;;;;;;;88.20;22.58;;;8.50;99.90;;;;;;5079507;28;20051;-50
2022/11/29 02:53:19;;;;;;;120.60;24.95;;;8.40;99.90;;;;;;5080616;28;20492;-54
2022/11/29 02:56:09;;;;;;;120.68;25.65;;;8.40;99.90;;;;;;5079642;28;20050;-54
2022/11/29 02:58:41;;;;;;;104.97;24.17;;;8.40;99.90;;;;;;5077464;28;20048;-54
2022/11/29 03:01:23;;;;;;;153.00;27.05;;;8.30;99.90;;;;;;5078154;28;20083;-52
2022/11/29 03:04:10;;;;;;;164.35;27.25;;;8.40;99.90;;;;;;5082172;28;20044;-51
2022/11/29 03:06:50;;;;;;;185.27;28.02;;;8.30;99.90;;;;;;5085890;28;20417;-52
2022/11/29 03:09:37;;;;;;;134.15;25.45;;;8.30;99.90;;;;;;5087121;28;20080;-55
2022/11/29 03:12:15;;;;;;;155.02;26.38;;;8.30;99.90;;;;;;5086446;28;20436;-51
2022/11/29 03:15:18;;;;;;;119.55;26.60;;;8.30;99.90;;;;;;5085711;28;20052;-53
2022/11/29 03:18:01;;;;;;;190.38;28.17;;;8.30;99.90;;;;;;5095691;28;20036;-55
2022/11/29 03:20:37;;;;;;;130.15;25.00;;;8.30;99.90;;;;;;5086520;28;20072;-53
2022/11/29 03:23:22;;;;;;;128.07;25.55;;;8.30;99.90;;;;;;5089290;28;20043;-55
2022/11/29 03:26:00;;;;;;;147.35;25.40;;;8.10;99.90;;;;;;5090447;28;20043;-52
2022/11/29 03:28:37;;;;;;;131.10;24.95;;;8.20;99.90;;;;;;5090376;28;20040;-52
2022/11/29 03:31:05;;;;;;;108.50;24.13;;;8.10;99.90;;;;;;5085955;28;20040;-52
2022/11/29 03:33:47;;;;;;;91.45;22.00;;;8.00;99.90;;;;;;5085549;28;20073;-53
2022/11/29 03:36:40;;;;;;;88.32;23.33;;;8.00;99.90;;;;;;5076734;28;20135;-54
2022/11/29 03:39:12;;;;;;;93.72;23.52;;;8.00;99.90;;;;;;5078756;28;20044;-54
2022/11/29 03:42:09;;;;;;;72.40;21.42;;;7.90;99.90;;;;;;5079328;28;20094;-54
2022/11/29 03:44:45;;;;;;;62.17;21.52;;;8.00;99.90;;;;;;5062957;28;20072;-53
2022/11/29 03:47:19;;;;;;;94.25;23.83;;;7.90;99.90;;;;;;5078488;28;20122;-52
2022/11/29 03:49:52;;;;;;;82.18;22.65;;;7.90;99.90;;;;;;5075933;28;20040;-51
2022/11/29 03:52:37;;;;;;;77.93;21.80;;;7.90;99.90;;;;;;5087418;28;20050;-52
2022/11/29 03:55:21;;;;;;;108.15;23.33;;;7.90;99.90;;;;;;5080006;28;20150;-51
2022/11/29 03:57:58;;;;;;;102.78;22.58;;;7.90;99.90;;;;;;5082955;28;20044;-50
2022/11/29 04:00:27;;;;;;;107.57;23.90;;;7.90;99.90;;;;;;5085461;28;20064;-55
2022/11/29 04:03:05;;;;;;;85.50;22.58;;;7.90;99.90;;;;;;5084146;28;20106;-55
2022/11/29 04:06:22;;;;;;;85.50;22.48;;;7.80;99.90;;;;;;5082966;28;20071;-51
2022/11/29 04:08:59;;;;;;;97.78;22.33;;;7.80;99.90;;;;;;5035052;28;20051;-54
2022/11/29 04:11:53;;;;;;;89.10;22.98;;;7.80;99.90;;;;;;5076964;28;20059;-51
2022/11/29 04:14:24;;;;;;;88.47;21.98;;;7.80;99.90;;;;;;5079487;28;22135;-51
2022/11/29 04:17:14;;;;;;;91.32;21.63;;;7.80;99.90;;;;;;5077330;28;20052;-51
2022/11/29 04:20:12;;;;;;;83.57;21.95;;;7.70;99.90;;;;;;5077494;28;20051;-50
2022/11/29 04:23:03;;;;;;;99.70;22.63;;;7.80;99.90;;;;;;5076960;28;20044;-50
2022/11/29 04:26:06;;;;;;;67.75;20.55;;;7.70;99.90;;;;;;5077331;28;20131;-52
2022/11/29 04:28:49;;;;;;;82.72;21.23;;;7.70;99.90;;;;;;5083338;28;20048;-51
2022/11/29 04:31:43;;;;;;;84.13;22.83;;;7.70;99.90;;;;;;5083459;28;20068;-50
2022/11/29 04:34:36;;;;;;;92.97;21.65;;;7.70;99.90;;;;;;5082735;28;20047;-55
2022/11/29 04:37:47;;;;;;;100.55;22.40;;;7.70;99.90;;;;;;5085572;28;21711;-54
2022/11/29 04:40:34;;;;;;;100.78;23.02;;;7.70;99.90;;;;;;5084601;28;20040;-52
2022/11/29 04:43:14;;;;;;;101.97;22.90;;;7.70;99.90;;;;;;5089824;28;20051;-55
2022/11/29 04:45:51;;;;;;;101.93;22.52;;;7.70;99.90;;;;;;5086585;28;20044;-55
2022/11/29 04:48:42;;;;;;;89.37;21.80;;;7.70;99.90;;;;;;5083524;28;20586;-55
2022/11/29 04:51:10;;;;;;;129.15;24.63;;;7.80;99.90;;;;;;5084899;28;20555;-54
2022/11/29 04:53:52;;;;;;;123.85;24.35;;;7.80;99.90;;;;;;5081444;28;20040;-56
2022/11/29 04:57:00;;;;;;;109.82;25.02;;;7.70;99.90;;;;;;5075183;28;20055;-55
2022/11/29 04:59:48;;;;;;;124.50;25.02;;;7.70;99.90;;;;;;5051083;28;20059;-55
2022/11/29 05:02:42;;;;;;;148.05;25.85;;;7.80;99.90;;;;;;5078350;28;20039;-51
2022/11/29 05:05:32;;;;;;;132.52;24.27;;;7.70;99.90;;;;;;5084085;28;20494;-50
2022/11/29 05:08:22;;;;;;;111.25;24.55;;;7.70;99.90;;;;;;5083608;28;20070;-53
2022/11/29 05:11:10;;;;;;;124.10;25.42;;;7.70;99.90;;;;;;5090642;28;20046;-54
2022/11/29 05:14:08;;;;;;;109.10;24.38;;;7.70;99.90;;;;;;5084704;28;20439;-51
2022/11/29 05:16:56;;;;;;;96.07;25.05;;;7.80;99.90;;;;;;5072986;28;20064;-55
2022/11/29 05:19:47;;;;;;;132.77;25.73;;;7.70;99.90;;;;;;5082455;28;20048;-54
2022/11/29 05:22:34;;;;;;;120.57;26.27;;;7.70;99.90;;;;;;5081577;28;20067;-53
2022/11/29 05:25:30;;;;;;;107.67;25.03;;;7.70;99.90;;;;;;5074833;28;20083;-53
2022/11/29 05:28:11;;;;;;;114.07;25.55;;;7.70;99.90;;;;;;5075673;28;20673;-51
2022/11/29 05:30:52;;;;;;;86.63;23.55;;;7.80;99.90;;;;;;5078474;28;20067;-50
2022/11/29 05:33:56;;;;;;;102.55;24.88;;;7.70;99.90;;;;;;5078603;28;20048;-50
2022/11/29 05:36:40;;;;;;;102.88;25.30;;;7.70;99.90;;;;;;5079767;28;20048;-50
2022/11/29 05:39:08;;;;;;;102.50;24.52;;;7.70;99.90;;;;;;5081282;28;20436;-50
2022/11/29 05:42:03;;;;;;;104.90;25.25;;;7.70;99.90;;;;;;5087423;28;20083;-55
2022/11/29 05:44:34;;;;;;;111.85;24.38;;;7.70;99.90;;;;;;5083775;28;20058;-54
2022/11/29 05:47:03;;;;;;;147.82;25.70;;;7.70;99.90;;;;;;5082173;28;20053;-53
2022/11/29 05:49:47;;;;;;;113.65;23.20;;;7.70;99.90;;;;;;5076114;28;20048;-52
2022/11/29 05:52:46;;;;;;;99.93;23.05;;;7.60;99.90;;;;;;5076179;28;20156;-55
2022/11/29 05:55:33;;;;;;;160.50;25.40;;;7.70;99.90;;;;;;5077399;28;20460;-55
2022/11/29 05:58:07;;;;;;;152.15;24.67;;;7.70;99.90;;;;;;5076858;28;20048;-51
2022/11/29 06:01:04;;;;;;;126.03;22.45;;;7.70;99.90;;;;;;5079425;28;20040;-52
2022/11/29 06:03:40;;;;;;;123.55;23.35;;;7.50;99.90;;;;;;5078778;28;20040;-51
2022/11/29 06:06:28;;;;;;;115.95;23.00;;;7.50;99.90;;;;;;5074001;28;20048;-52
2022/11/29 06:09:04;;;;;;;71.20;21.00;;;7.50;99.90;;;;;;5083271;28;20530;-50
2022/11/29 06:11:38;;;;;;;64.43;21.02;;;7.50;99.90;;;;;;5075580;28;20549;-51
2022/11/29 06:14:16;;;;;;;97.25;21.33;;;7.40;99.90;;;;;;5075889;28;20477;-50
2022/11/29 06:17:05;;;;;;;131.55;22.80;;;7.40;99.90;;;;;;5075486;28;20156;-53
2022/11/29 06:19:51;;;;;;;132.20;23.08;;;7.50;99.90;;;;;;5077682;28;20079;-52
2022/11/29 06:22:26;;;;;;;119.80;22.48;;;7.50;99.90;;;;;;5075599;28;20054;-50
2022/11/29 06:25:41;;;;;;;159.00;22.27;;;7.40;99.90;;;;;;5075534;28;20374;-54
2022/11/29 06:28:31;;;;;;;115.22;21.17;;;7.50;99.90;;;;;;5075873;28;20135;-52
2022/11/29 06:31:07;;;;;;;90.82;22.05;;;7.50;99.90;;;;;;5081075;28;20288;-50
2022/11/29 06:34:00;;;;;;;129.68;23.15;;;7.40;99.90;;;;;;5076626;28;20048;-53
2022/11/29 06:36:36;;;;;;;117.38;23.35;;;7.40;99.90;;;;;;5090277;28;20056;-53
2022/11/29 06:39:02;;;;;;;162.15;24.13;;;7.40;99.90;;;;;;5080884;28;20557;-51
2022/11/29 06:41:28;;;;;;;180.25;25.38;;;7.40;99.90;;;;;;5085219;28;20127;-52
2022/11/29 06:43:54;;;;;;;128.15;23.13;;;7.40;99.90;;;;;;5080455;28;20036;-52
2022/11/29 06:46:35;;;;;;;160.35;22.92;;;7.40;99.90;;;;;;5080527;28;20032;-53
2022/11/29 06:49:41;;;;;;;172.13;23.13;;;7.40;99.90;;;;;;5087003;28;20569;-51
2022/11/29 06:52:38;;;;;;;144.88;21.48;;;7.40;99.90;;;;;;5071020;28;20052;-51
2022/11/29 06:55:09;;;;;;;153.82;22.75;;;7.40;99.90;;;;;;5086811;28;20181;-52
2022/11/29 06:57:46;;;;;;;115.07;21.15;;;7.40;99.90;;;;;;5082831;28;20048;-53
2022/11/29 07:00:18;;;;;;;196.05;23.27;;;7.30;99.90;;;;;;5083376;28;20063;-52
2022/11/29 07:02:46;;;;;;;139.30;21.67;;;7.30;99.90;;;;;;5083051;28;20032;-53
2022/11/29 07:05:26;;;;;;;136.13;21.90;;;7.30;99.90;;;;;;5083125;28;20487;-51
2022/11/29 07:07:59;;;;;;;139.60;21.52;;;7.30;99.90;;;;;;5081957;28;20047;-51
2022/11/29 07:10:26;;;;;;;128.10;21.80;;;7.30;99.90;;;;;;5087389;28;20456;-50
2022/11/29 07:12:52;;;;;;;203.88;25.30;;;7.40;99.90;;;;;;5095113;28;20280;-53
2022/11/29 07:15:20;;;;;;;105.25;20.67;;;7.40;99.90;;;;;;5084043;28;20036;-50
2022/11/29 07:18:03;;;;;;;144.73;22.08;;;7.40;99.90;;;;;;5079579;28;20036;-51
2022/11/29 07:21:06;;;;;;;126.70;22.25;;;7.40;99.90;;;;;;5079170;28;20055;-50
2022/11/29 07:23:40;;;;;;;142.20;22.25;;;7.30;99.90;;;;;;5083397;28;20047;-51
2022/11/29 07:26:08;;;;;;;132.75;21.60;;;7.30;99.90;;;;;;5082134;28;20093;-53
2022/11/29 07:28:54;;;;;;;94.07;18.85;;;7.40;99.90;;;;;;5078550;28;20043;-54
2022/11/29 07:31:22;;;;;;;114.32;19.33;;;7.30;99.90;;;;;;5081212;28;20051;-53
2022/11/29 07:34:16;;;;;;;127.40;20.42;;;7.30;99.90;;;;;;5079980;28;20043;-54
2022/11/29 07:37:02;;;;;;;101.43;19.98;;;7.30;99.90;;;;;;5084537;28;20498;-54
2022/11/29 07:40:01;;;;;;;103.85;20.35;;;7.30;99.90;;;;;;5077864;28;20468;-55
2022/11/29 07:42:40;;;;;;;96.20;19.08;;;7.40;99.90;;;;;;5080959;28;20036;-54
2022/11/29 07:45:09;;;;;;;97.53;19.02;;;7.40;99.90;;;;;;5078703;28;20441;-53
2022/11/29 07:47:35;;;;;;;111.03;19.13;;;7.30;99.90;;;;;;5078122;28;20127;-50
2022/11/29 07:50:00;;;;;;;110.03;20.02;;;7.30;99.90;;;;;;5083768;28;20173;-51
2022/11/29 07:52:27;;;;;;;118.72;20.02;;;7.30;99.90;;;;;;5081233;28;21356;-52
2022/11/29 07:54:52;;;;;;;91.25;20.00;;;7.40;99.90;;;;;;5079470;28;20055;-54
2022/11/29 07:57:18;;;;;;;107.78;20.67;;;7.40;99.90;;;;;;5084873;28;20501;-50
2022/11/29 07:59:43;;;;;;;113.15;20.95;;;7.40;99.90;;;;;;5083985;28;20051;-51
2022/11/29 08:02:10;;;;;;;88.43;20.13;;;7.40;99.90;;;;;;5083044;28;20036;-50
2022/11/29 08:04:41;;;;;;;108.50;20.63;;;7.50;99.90;;;;;;5084806;28;20036;-53
2022/11/29 08:07:06;;;;;;;114.05;21.35;;;7.50;99.90;;;;;;5085983;28;20048;-53
2022/11/29 08:09:34;;;;;;;96.68;21.50;;;7.40;99.90;;;;;;5081193;28;20378;-53
2022/11/29 08:12:00;;;;;;;90.15;20.80;;;7.50;99.90;;;;;;5086918;28;20064;-51
2022/11/29 08:14:29;;;;;;;148.00;22.75;;;7.50;99.90;;;;;;5079128;28;20102;-53
2022/11/29 08:16:55;;;;;;;108.13;22.27;;;7.50;99.90;;;;;;5087255;28;20375;-50
2022/11/29 08:19:20;;;;;;;93.05;21.80;;;7.50;99.90;;;;;;5086817;28;20109;-50
2022/11/29 08:21:47;;;;;;;106.30;22.05;;;7.50;99.90;;;;;;5086089;28;20521;-51
2022/11/29 08:24:12;;;;;;;79.97;20.70;;;7.50;99.90;;;;;;5086462;28;20097;-53
2022/11/29 08:26:38;;;;;;;88.10;20.88;;;7.60;99.90;;;;;;5086690;28;20036;-50
2022/11/29 08:29:03;;;;;;;80.38;21.15;;;7.60;99.90;;;;;;5089434;28;20064;-50
2022/11/29 08:31:29;;;;;;;96.60;22.35;;;7.50;99.90;;;;;;5088274;28;20044;-50
2022/11/29 08:33:54;;;;;;;87.82;21.75;;;7.60;99.90;;;;;;5088965;28;20037;-55
2022/11/29 08:36:20;;;;;;;96.47;23.17;;;7.60;99.90;;;;;;5089671;28;20052;-52
2022/11/29 08:38:47;;;;;;;107.93;22.90;;;7.60;99.90;;;;;;5088423;28;20036;-52
2022/11/29 08:41:15;;;;;;;93.57;21.65;;;7.60;99.90;;;;;;5083886;28;20454;-55
2022/11/29 08:43:42;;;;;;;92.47;21.73;;;7.60;99.90;;;;;;5085560;28;20032;-55
2022/11/29 08:46:07;;;;;;;69.15;21.23;;;7.60;99.90;;;;;;5091732;28;20040;-52
2022/11/29 08:48:34;;;;;;;90.97;23.05;;;7.60;99.90;;;;;;5092637;28;20074;-54
2022/11/29 08:51:00;;;;;;;82.30;21.58;;;7.70;99.90;;;;;;5089002;28;20040;-53
2022/11/29 08:53:41;;;;;;;89.95;22.38;;;7.70;99.90;;;;;;5084488;28;20809;-54
2022/11/29 08:56:11;;;;;;;79.68;22.45;;;7.70;99.90;;;;;;5089251;28;20506;-55
2022/11/29 08:58:37;;;;;;;82.63;22.75;;;7.70;99.90;;;;;;5084895;28;20086;-54
2022/11/29 09:01:05;;;;;;;103.38;23.50;;;7.80;99.90;;;;;;5088699;28;20405;-53
2022/11/29 09:06:16;;;;;;;97.28;21.92;;;7.80;99.90;;;;;;5088060;28;20130;-51
2022/11/29 09:08:43;;;;;;;70.85;20.85;;;7.80;99.90;;;;;;5085287;28;20454;-52
2022/11/29 09:11:13;;;;;;;79.35;21.70;;;8.00;99.90;;;;;;5083000;28;20040;-50
2022/11/29 09:13:45;;;;;;;61.97;19.90;;;7.90;99.90;;;;;;5086561;28;20552;-50
2022/11/29 09:16:13;;;;;;;51.85;18.40;;;8.30;99.90;;;;;;5091601;28;20047;-50
2022/11/29 09:18:40;;;;;;;72.22;19.83;;;7.90;99.90;;;;;;5087287;28;20040;-51
2022/11/29 09:21:11;;;;;;;60.25;20.48;;;7.90;99.90;;;;;;5093335;28;20048;-52
2022/11/29 09:23:38;;;;;;;60.53;20.48;;;8.00;99.90;;;;;;5090280;28;20511;-53
2022/11/29 09:26:04;;;;;;;62.10;20.98;;;8.00;99.90;;;;;;5090948;28;20059;-51
2022/11/29 09:28:32;;;;;;;49.75;19.88;;;8.00;99.90;;;;;;5089210;28;20090;-51
2022/11/29 09:31:08;;;;;;;63.97;20.60;;;8.00;99.90;;;;;;5087707;28;20036;-51
2022/11/29 09:33:34;;;;;;;63.70;19.63;;;8.00;99.90;;;;;;5083324;28;20054;-50
2022/11/29 09:36:00;;;;;;;63.72;20.80;;;8.10;99.90;;;;;;5085581;28;20440;-51
2022/11/29 09:38:26;;;;;;;76.20;22.23;;;8.10;99.90;;;;;;5087199;28;20032;-50
2022/11/29 09:40:54;;;;;;;63.35;21.33;;;8.20;99.90;;;;;;5082988;28;21134;-52
2022/11/29 09:43:45;;;;;;;65.20;20.83;;;8.20;99.90;;;;;;5082830;28;20493;-52
2022/11/29 09:46:21;;;;;;;47.55;18.83;;;8.20;99.90;;;;;;5083680;28;20044;-52
2022/11/29 09:49:20;;;;;;;58.95;20.33;;;8.20;99.90;;;;;;5075507;28;20051;-51
2022/11/29 09:52:13;;;;;;;53.33;19.35;;;8.20;99.90;;;;;;5071696;28;20040;-54
2022/11/29 09:54:55;;;;;;;51.05;19.20;;;8.20;99.90;;;;;;5073152;28;20487;-51
2022/11/29 09:57:23;;;;;;;58.38;18.80;;;8.20;99.90;;;;;;5075210;28;20052;-53
2022/11/29 09:59:54;;;;;;;52.08;19.00;;;8.30;99.90;;;;;;5092874;28;20048;-53
2022/11/29 10:02:46;;;;;;;45.72;19.30;;;8.30;99.90;;;;;;5092367;28;20050;-51
2022/11/29 10:05:45;;;;;;;47.80;18.45;;;8.30;99.90;;;;;;5092065;28;20044;-51
2022/11/29 10:08:21;;;;;;;39.22;18.23;;;8.30;99.90;;;;;;5091840;28;20035;-50
2022/11/29 10:10:48;;;;;;;65.45;20.15;;;8.30;99.90;;;;;;5092980;28;20048;-53
2022/11/29 10:13:28;;;;;;;45.33;19.58;;;8.30;99.90;;;;;;5092998;28;20130;-52
2022/11/29 10:16:03;;;;;;;53.65;20.48;;;8.40;99.90;;;;;;5090756;28;20062;-51
2022/11/29 10:18:37;;;;;;;44.28;19.83;;;8.30;99.90;;;;;;5090627;28;20512;-50
2022/11/29 10:21:11;;;;;;;52.47;19.17;;;8.40;99.90;;;;;;5092872;28;20036;-50
2022/11/29 10:23:46;;;;;;;48.65;19.38;;;8.40;99.90;;;;;;5093123;28;20063;-51
2022/11/29 10:26:12;;;;;;;46.40;19.88;;;8.40;99.90;;;;;;5093024;28;20061;-51
2022/11/29 10:28:43;;;;;;;45.13;20.20;;;8.40;99.90;;;;;;5090233;28;20482;-50
2022/11/29 10:31:19;;;;;;;48.20;20.42;;;8.50;99.90;;;;;;5090691;28;20050;-52
2022/11/29 10:33:45;;;;;;;48.22;19.55;;;8.50;99.90;;;;;;5091224;28;20098;-50
2022/11/29 10:36:35;;;;;;;38.50;17.73;;;8.50;99.90;;;;;;5093188;28;20355;-51
2022/11/29 10:39:04;;;;;;;40.47;18.33;;;8.60;99.90;;;;;;5091520;28;20490;-50
2022/11/29 10:41:30;;;;;;;34.83;17.92;;;8.60;99.90;;;;;;5090806;28;20094;-52
2022/11/29 10:43:58;;;;;;;37.95;18.08;;;8.60;99.90;;;;;;5092684;28;20042;-50
2022/11/29 10:46:31;;;;;;;35.65;17.55;;;8.60;99.90;;;;;;5095586;28;20040;-52
2022/11/29 10:49:00;;;;;;;33.55;17.52;;;8.70;99.90;;;;;;5095484;28;20563;-51
2022/11/29 10:51:26;;;;;;;37.30;18.00;;;8.70;99.90;;;;;;5096580;28;20123;-50
2022/11/29 10:53:53;;;;;;;44.53;18.63;;;8.70;99.90;;;;;;5096431;28;20094;-50
2022/11/29 10:56:30;;;;;;;41.83;17.45;;;8.70;99.90;;;;;;5094347;28;20096;-51
2022/11/29 10:59:08;;;;;;;42.72;18.85;;;8.80;99.90;;;;;;5092567;28;20140;-55
2022/11/29 11:01:52;;;;;;;41.05;18.83;;;8.80;99.90;;;;;;5091947;28;20052;-53
2022/11/29 11:04:28;;;;;;;41.38;18.05;;;8.80;99.90;;;;;;5095921;28;20059;-51
2022/11/29 11:07:00;;;;;;;37.05;17.85;;;8.90;99.90;;;;;;5093416;28;20078;-52
2022/11/29 11:09:36;;;;;;;38.05;18.30;;;8.90;99.90;;;;;;5092502;28;20071;-51
2022/11/29 11:12:24;;;;;;;39.92;18.50;;;8.90;99.90;;;;;;5093694;28;20079;-55
2022/11/29 11:14:50;;;;;;;38.88;18.60;;;9.00;99.90;;;;;;5084741;28;20451;-50
2022/11/29 11:17:30;;;;;;;39.10;17.85;;;9.00;99.90;;;;;;5088138;28;20032;-55
2022/11/29 11:20:07;;;;;;;33.13;17.58;;;9.20;99.90;;;;;;5093316;28;20040;-53
2022/11/29 11:22:34;;;;;;;38.53;17.80;;;9.10;99.90;;;;;;5094441;28;20040;-51
2022/11/29 11:25:26;;;;;;;36.33;17.63;;;9.10;99.90;;;;;;5095379;28;20067;-53
2022/11/29 11:27:52;;;;;;;37.38;16.60;;;9.10;99.90;;;;;;5090308;28;20123;-54
2022/11/29 11:30:27;;;;;;;33.83;16.00;;;9.10;99.90;;;;;;5091987;28;20094;-55
2022/11/29 11:33:22;;;;;;;31.90;15.00;;;9.10;99.90;;;;;;5093078;28;20040;-55
2022/11/29 11:36:22;;;;;;;33.05;14.88;;;9.10;99.90;;;;;;5094489;28;20040;-50
2022/11/29 11:38:53;;;;;;;29.38;15.10;;;9.00;99.90;;;;;;5080660;28;20131;-51
2022/11/29 11:44:33;;;;;;;31.90;14.55;;;9.10;99.90;;;;;;5092849;28;20044;-50
2022/11/29 11:47:00;;;;;;;30.63;15.10;;;;;;;;;;5091132;28;20062;-50
2022/11/29 11:49:49;;;;;;;29.13;14.68;;;9.30;99.90;;;;;;5092886;28;20044;-50
2022/11/29 11:52:23;;;;;;;32.55;14.90;;;9.30;99.90;;;;;;5094081;28;20044;-50
2022/11/29 11:55:21;;;;;;;33.45;14.38;;;9.20;99.90;;;;;;5092913;28;20382;-50
2022/11/29 11:58:05;;;;;;;27.25;14.57;;;9.30;99.90;;;;;;5089015;28;20144;-50
2022/11/29 12:00:45;;;;;;;31.48;14.52;;;9.30;99.90;;;;;;5091861;28;20152;-51
2022/11/29 12:03:29;;;;;;;32.13;14.43;;;9.10;99.90;;;;;;5090269;28;20054;-52
2022/11/29 12:06:22;;;;;;;30.35;14.48;;;9.40;99.90;;;;;;5090708;28;20410;-54
2022/11/29 12:08:49;;;;;;;28.45;14.30;;;9.40;99.90;;;;;;5091371;28;20074;-50
2022/11/29 12:11:17;;;;;;;26.80;13.83;;;9.40;99.90;;;;;;5094351;28;20093;-50
2022/11/29 12:13:54;;;;;;;29.75;14.85;;;9.20;99.90;;;;;;5091197;28;20040;-52
2022/11/29 12:16:29;;;;;;;28.50;15.65;;;9.10;99.90;;;;;;5094239;28;20048;-51
2022/11/29 12:19:22;;;;;;;26.75;14.52;;;9.20;99.90;;;;;;5091718;28;20051;-51
2022/11/29 12:21:51;;;;;;;33.97;15.38;;;9.30;99.90;;;;;;5088279;28;20102;-52
2022/11/29 12:24:31;;;;;;;25.67;13.90;;;9.10;99.90;;;;;;5092724;28;20378;-51
2022/11/29 12:27:03;;;;;;;26.42;14.52;;;9.30;99.90;;;;;;5091455;28;20093;-53
2022/11/29 12:29:32;;;;;;;25.92;14.57;;;9.30;99.90;;;;;;5091872;28;20405;-51
2022/11/29 12:32:05;;;;;;;27.63;14.50;;;9.30;99.90;;;;;;5092625;28;20036;-50
2022/11/29 12:34:51;;;;;;;28.30;13.20;;;9.40;99.90;;;;;;5093272;28;20040;-50
2022/11/29 12:37:59;;;;;;;28.55;12.93;;;9.30;99.90;;;;;;5075846;28;20040;-52
2022/11/29 12:40:48;;;;;;;24.20;13.50;;;9.20;99.90;;;;;;5082849;28;20093;-49
2022/11/29 12:43:27;;;;;;;30.83;14.48;;;9.40;99.90;;;;;;5091796;28;20075;-48
2022/11/29 12:46:03;;;;;;;26.73;13.90;;;;;;;;;;5090005;28;20412;-48
2022/11/29 12:48:59;;;;;;;29.55;14.88;;;9.40;99.90;;;;;;5093374;28;20075;-52
2022/11/29 12:51:25;;;;;;;28.50;14.35;;;9.30;99.90;;;;;;5093852;28;20054;-49
2022/11/29 12:54:28;;;;;;;31.35;14.35;;;9.50;99.90;;;;;;5097074;28;20396;-52
2022/11/29 12:57:00;;;;;;;25.77;14.02;;;9.30;99.90;;;;;;5090902;28;20135;-53
2022/11/29 12:59:43;;;;;;;24.77;13.25;;;9.40;99.90;;;;;;5090973;28;20036;-52
2022/11/29 13:02:33;;;;;;;28.48;13.95;;;9.50;99.90;;;;;;5093261;28;20044;-53
2022/11/29 13:05:14;;;;;;;26.58;14.15;;;9.50;99.90;;;;;;5092549;28;20058;-56
2022/11/29 13:07:58;;;;;;;24.77;13.88;;;9.30;99.90;;;;;;5086809;28;20078;-55
2022/11/29 13:10:50;;;;;;;22.23;12.80;;;9.30;99.90;;;;;;5091263;28;20040;-52
2022/11/29 13:13:16;;;;;;;23.75;13.52;;;9.40;99.90;;;;;;5093487;28;20085;-52
2022/11/29 13:16:28;;;;;;;27.77;13.30;;;9.10;99.90;;;;;;5089390;28;20040;-53
2022/11/29 13:19:18;;;;;;;24.30;13.43;;;9.20;99.90;;;;;;5089502;28;20051;-51
2022/11/29 13:22:06;;;;;;;24.33;11.98;;;9.30;99.90;;;;;;5092818;28;20040;-49
2022/11/29 13:24:49;;;;;;;21.05;12.05;;;9.30;99.90;;;;;;5093772;28;20056;-51
2022/11/29 13:27:20;;;;;;;23.40;11.85;;;9.20;99.90;;;;;;5092313;28;20040;-51
2022/11/29 13:29:47;;;;;;;23.15;12.32;;;9.30;99.90;;;;;;5092228;28;20097;-49